Weather reports worldwide

Advertisment
S. Valentino Alla Muta, Italy (16008): temperature & dewpoint: 08.10.2019 14:00:00 - 14.10.2019 14:00:00 (CEST)S. Valentino Alla Muta, Italy (16008): wind speed: 08.10.2019 14:00:00 - 14.10.2019 14:00:00 (CEST)S. Valentino Alla Muta, Italy (16008): wind direction: 08.10.2019 14:00:00 - 14.10.2019 14:00:00 (CEST)S. Valentino Alla Muta, Italy (16008): visibility: 08.10.2019 14:00:00 - 14.10.2019 14:00:00 (CEST)
Date & Time tt [°C] td [°C] ff [km/h] ff [kn] dd vv [km]
14.10.2019 14:00:00 - - - - - -
14.10.2019 13:00:00 13,2 6,3 13 7 SSW 20
14.10.2019 12:00:00 10,4 7,3 11 6 SSW 20
14.10.2019 11:00:00 7,2 5,4 9 5 SSW 20
14.10.2019 10:00:00 5,0 4,6 0 0 N 18
14.10.2019 09:00:00 4,0 3,0 5 3 N 20
14.10.2019 08:00:00 4,0 3,3 0 0 N 20
14.10.2019 07:00:00 4,0 2,8 0 0 N 18
14.10.2019 06:00:00 - - - - - -
14.10.2019 05:00:00 4,8 3,8 0 0 N 12
14.10.2019 04:00:00 4,8 3,8 0 0 N 10
14.10.2019 03:00:00 5,0 3,8 4 2 N 10
14.10.2019 02:00:00 5,4 3,9 0 0 N 10
14.10.2019 01:00:00 5,8 4,4 0 0 N 10
14.10.2019 00:00:00 5,8 4,4 4 2 NE 10
13.10.2019 23:00:00 6,0 4,2 0 0 N 10
13.10.2019 22:00:00 7,0 5,0 0 0 N 12
13.10.2019 21:00:00 7,2 4,7 0 0 N 15
13.10.2019 20:00:00 8,0 4,8 0 0 N 18
13.10.2019 19:00:00 9,0 5,0 9 5 SW 20
13.10.2019 18:00:00 9,6 5,4 15 8 SSW 20
13.10.2019 17:00:00 11,0 3,5 15 8 SSW 20
13.10.2019 16:00:00 11,0 3,8 15 8 SW 20
13.10.2019 15:00:00 11,0 3,1 13 7 SW 20
13.10.2019 14:00:00 10,8 3,1 13 7 SSW 20
13.10.2019 13:00:00 9,8 3,5 13 7 SW 20
13.10.2019 12:00:00 9,2 3,2 16 9 SW 20
13.10.2019 11:00:00 8,8 3,0 9 5 SSW 20
13.10.2019 10:00:00 4,8 3,9 0 0 N 20
13.10.2019 09:00:00 3,0 2,1 5 3 N 18
13.10.2019 08:00:00 3,0 1,8 0 0 N 15
13.10.2019 07:00:00 3,2 2,2 0 0 N 12
13.10.2019 06:00:00 3,2 2,2 0 0 N 12
13.10.2019 05:00:00 3,8 2,8 5 3 N 12
13.10.2019 04:00:00 3,8 2,8 5 3 NE 12
13.10.2019 03:00:00 3,8 2,5 5 3 NNE 12
13.10.2019 02:00:00 4,2 2,9 0 0 N 12
13.10.2019 01:00:00 4,4 3,1 9 5 NNE 12
13.10.2019 00:00:00 4,8 3,0 0 0 N 12
12.10.2019 23:00:00 5,2 3,2 8 4 NNE 15
12.10.2019 22:00:00 6,6 3,9 5 3 E 15
12.10.2019 21:00:00 8,0 4,6 5 3 S 15
12.10.2019 20:00:00 8,2 4,2 5 3 SSE 18
12.10.2019 19:00:00 8,2 2,2 9 5 SSW 20
12.10.2019 18:00:00 9,2 3,2 11 6 SSW 20
12.10.2019 17:00:00 9,6 2,5 9 5 SW 25
12.10.2019 16:00:00 10,4 0,7 16 9 S 30
12.10.2019 15:00:00 11,0 -0,5 16 9 S 30
12.10.2019 14:00:00 11,0 -1,4 15 8 S 30
12.10.2019 13:00:00 11,0 -1,4 16 9 SSW 20
12.10.2019 12:00:00 9,6 2,0 9 5 SSW 30
12.10.2019 11:00:00 4,8 3,0 0 0 N 20
12.10.2019 10:00:00 3,8 2,3 0 0 N 18
12.10.2019 09:00:00 2,0 0,5 0 0 N 20
12.10.2019 08:00:00 2,0 0,5 0 0 N 20
12.10.2019 07:00:00 - - - - - -
12.10.2019 06:00:00 - - - - - -
12.10.2019 05:00:00 2,4 0,9 0 0 N 15
12.10.2019 04:00:00 - - - - - -
12.10.2019 03:00:00 - - - - - -
12.10.2019 02:00:00 3,2 1,1 4 2 ENE 10
12.10.2019 01:00:00 3,4 1,1 0 0 N 10
12.10.2019 00:00:00 4,0 1,5 0 0 N 10
11.10.2019 23:00:00 4,0 0,9 0 0 N 10
11.10.2019 22:00:00 5,0 1,1 0 0 N 12
11.10.2019 21:00:00 5,8 0,8 0 0 N 15
11.10.2019 20:00:00 6,4 0,7 4 2 SW 18
11.10.2019 19:00:00 7,0 0,2 9 5 SSW 20
11.10.2019 18:00:00 8,8 -3,7 9 5 S 20
11.10.2019 17:00:00 10,0 -5,1 13 7 S 20
11.10.2019 16:00:00 10,0 -5,1 15 8 S 20
11.10.2019 15:00:00 10,2 -5,3 15 8 S 20
11.10.2019 14:00:00 10,4 -6,4 13 7 S 20
11.10.2019 13:00:00 10,0 -7,7 13 7 S 20
11.10.2019 12:00:00 10,2 -8,4 8 4 S 20
11.10.2019 11:00:00 7,4 -4,0 5 3 SSW 20
11.10.2019 10:00:00 3,0 -1,4 4 2 N 20
11.10.2019 09:00:00 1,0 -2,4 0 0 N 20
11.10.2019 08:00:00 1,0 -2,4 0 0 N 20
11.10.2019 07:00:00 1,4 -2,0 8 4 NNE 12
11.10.2019 06:00:00 1,8 -1,8 8 4 NNE 10
11.10.2019 05:00:00 2,8 -1,0 8 4 NNE 10
11.10.2019 04:00:00 3,0 -0,6 8 4 NNE 10
11.10.2019 03:00:00 3,0 -0,5 8 4 NNE 10
11.10.2019 02:00:00 3,0 -1,0 8 4 SW 10
11.10.2019 01:00:00 3,8 -1,8 8 4 NNE 10
11.10.2019 00:00:00 3,8 -1,5 11 6 NE 10
10.10.2019 23:00:00 3,6 -3,0 9 5 NNE 10
10.10.2019 22:00:00 4,0 -1,4 9 5 NNE 12
10.10.2019 21:00:00 4,4 -2,0 8 4 NNE 12
10.10.2019 20:00:00 5,4 -2,4 4 2 N 15
10.10.2019 19:00:00 6,8 -3,7 5 3 NNE 20
10.10.2019 18:00:00 8,4 -6,5 8 4 NE 20
10.10.2019 17:00:00 10,0 -8,1 8 4 NNE 30
10.10.2019 16:00:00 9,4 -9,6 5 3 NE 30
10.10.2019 15:00:00 9,4 -10,7 5 3 NE 30
10.10.2019 14:00:00 9,4 -11,3 9 5 NNE 30
10.10.2019 13:00:00 10,0 -10,2 9 5 NNE 30
10.10.2019 12:00:00 9,4 -3,5 11 6 NNE 30
10.10.2019 11:00:00 7,0 -0,2 11 6 NNE 30
10.10.2019 10:00:00 5,0 0,6 11 6 NNE 30
10.10.2019 09:00:00 3,4 -0,2 11 6 NNE 30
10.10.2019 08:00:00 3,8 1,5 9 5 NNE 30
10.10.2019 07:00:00 3,0 0,6 5 3 NNE 10
10.10.2019 06:00:00 3,0 0,4 5 3 NNE 10
10.10.2019 05:00:00 3,2 0,6 9 5 NNE 10
10.10.2019 04:00:00 3,0 0,6 8 4 N 10
10.10.2019 03:00:00 3,8 1,0 8 4 N 10
10.10.2019 02:00:00 3,8 1,0 8 4 NNE 10
10.10.2019 01:00:00 4,2 0,4 5 3 N 10
10.10.2019 00:00:00 4,4 0,4 5 3 N 10
09.10.2019 23:00:00 5,0 2,5 8 4 N 8
09.10.2019 22:00:00 5,0 1,7 9 5 NNE 6
09.10.2019 21:00:00 5,6 2,1 9 5 NNE 6
09.10.2019 20:00:00 5,6 2,1 9 5 NNE 3,0
09.10.2019 19:00:00 5,2 1,5 8 4 NNE 3,0
09.10.2019 18:00:00 5,2 2,6 5 3 NNE 0,8
09.10.2019 17:00:00 5,0 3,0 13 7 S 0,1
09.10.2019 16:00:00 5,0 2,7 15 8 S 0,1
09.10.2019 15:00:00 5,0 2,7 16 9 S 0,8
09.10.2019 14:00:00 5,0 3,5 16 9 S 0,1
09.10.2019 13:00:00 5,0 3,5 16 9 S 0,1
09.10.2019 12:00:00 5,0 4,9 15 8 S 0,1
09.10.2019 11:00:00 5,0 5,0 15 8 S 0,1
09.10.2019 10:00:00 5,0 4,9 13 7 S 1,5
09.10.2019 09:00:00 5,0 4,9 11 6 S 1,2
09.10.2019 08:00:00 5,2 5,2 9 5 S 2,0
09.10.2019 07:00:00 5,4 5,4 11 6 S 6
09.10.2019 06:00:00 5,4 5,4 8 4 SSW 10
09.10.2019 05:00:00 5,4 5,4 8 4 SSW 10
09.10.2019 04:00:00 5,4 5,4 8 4 S 10
09.10.2019 03:00:00 5,4 4,8 0 0 N 10
09.10.2019 02:00:00 5,4 5,1 8 4 SW 10
09.10.2019 01:00:00 5,0 4,7 0 0 N 10
09.10.2019 00:00:00 5,2 4,6 0 0 N 10
08.10.2019 23:00:00 5,4 4,7 0 0 N 10
08.10.2019 22:00:00 6,4 4,9 0 0 N 12
08.10.2019 21:00:00 6,8 4,8 4 2 NNE 12
08.10.2019 20:00:00 7,4 4,4 0 0 N 20
08.10.2019 19:00:00 8,6 4,6 11 6 WSW 20
08.10.2019 18:00:00 9,4 4,0 8 4 SW 20
08.10.2019 17:00:00 10,0 1,9 9 5 S 20
08.10.2019 16:00:00 10,2 1,1 11 6 S 20
08.10.2019 15:00:00 11,0 1,0 13 7 SSW 20
08.10.2019 14:00:00 12,2 0,9 13 7 SSW 20

tt = temperature
td = dewpoint
ff = wind speed
dd = wind direction
vv = visibility

Next stations